Time;durP1;ratioP1;P1;durP2;ratioP2;P2;SDS_P1;SDS_P2;PMS_P1;PMS_P2;Temp;Humidity;BMP_temperature;BMP_pressure;BME280_temperature;BME280_humidity;BME280_pressure;Samples;Min_cycle;Max_cycle;Signal;HPM_P1;HPM_P2
2022/11/29 00:00:53;;;;;;;13.68;9.02;;;;;;;;;;5093597;28;20077;-72
2022/11/29 00:03:19;;;;;;;21.65;12.45;;;;;;;;;;5093294;28;20533;-73
2022/11/29 00:05:46;;;;;;;23.00;12.27;;;;;;;;;;5092433;28;20036;-73
2022/11/29 00:08:12;;;;;;;25.10;12.52;;;;;;;;;;5093558;28;20087;-73
2022/11/29 00:10:38;;;;;;;16.48;9.90;;;;;;;;;;5093106;28;20047;-72
2022/11/29 00:13:05;;;;;;;13.88;8.43;;;;;;;;;;5093481;28;20026;-72
2022/11/29 00:15:35;;;;;;;17.70;6.20;;;;;;;;;;5074989;28;20435;-72
2022/11/29 00:18:01;;;;;;;12.57;4.90;;;;;;;;;;5093589;28;20024;-72
2022/11/29 00:20:28;;;;;;;9.98;3.95;;;;;;;;;;5093051;28;20027;-73
2022/11/29 00:22:54;;;;;;;5.22;1.50;;;;;;;;;;5093187;28;20370;-73
2022/11/29 00:25:20;;;;;;;4.05;1.35;;;;;;;;;;5075265;28;20035;-72
2022/11/29 00:27:47;;;;;;;5.25;1.80;;;;;;;;;;5093038;28;20072;-73
2022/11/29 00:30:13;;;;;;;3.28;1.10;;;;;;;;;;5092786;28;20054;-72
2022/11/29 00:32:39;;;;;;;6.43;1.20;;;;;;;;;;5093017;28;20469;-72
2022/11/29 00:35:06;;;;;;;4.28;1.08;;;;;;;;;;5093127;28;20036;-72
2022/11/29 00:37:32;;;;;;;5.65;1.20;;;;;;;;;;5074787;28;20016;-72
2022/11/29 00:39:58;;;;;;;3.25;1.30;;;;;;;;;;5092708;28;20050;-72
2022/11/29 00:42:25;;;;;;;2.90;1.00;;;;;;;;;;5073695;28;20036;-73
2022/11/29 00:44:51;;;;;;;1.75;0.82;;;;;;;;;;5072324;28;20039;-72
2022/11/29 00:47:17;;;;;;;8.95;1.17;;;;;;;;;;5072803;28;20032;-73
2022/11/29 00:49:44;;;;;;;5.50;0.90;;;;;;;;;;5072497;28;20029;-72
2022/11/29 00:52:10;;;;;;;5.00;1.45;;;;;;;;;;5072742;28;20024;-72
2022/11/29 00:54:36;;;;;;;6.28;1.42;;;;;;;;;;5072595;28;20021;-72
2022/11/29 00:57:03;;;;;;;7.68;2.97;;;;;;;;;;5072433;28;20537;-72
2022/11/29 00:59:29;;;;;;;3.60;1.55;;;;;;;;;;5072083;28;20078;-72
2022/11/29 01:01:55;;;;;;;10.25;3.40;;;;;;;;;;5072404;28;20032;-73
2022/11/29 01:04:22;;;;;;;20.25;7.45;;;;;;;;;;5072331;28;20047;-72
2022/11/29 01:06:52;;;;;;;23.30;9.32;;;;;;;;;;5072446;28;20077;-72
2022/11/29 01:09:18;;;;;;;30.40;11.27;;;;;;;;;;5072228;28;20035;-72
2022/11/29 01:11:45;;;;;;;29.52;12.00;;;;;;;;;;5072054;28;20032;-72
2022/11/29 01:14:12;;;;;;;17.05;6.45;;;;;;;;;;5071855;28;20020;-73
2022/11/29 01:16:38;;;;;;;11.90;4.30;;;;;;;;;;5072238;28;20485;-72
2022/11/29 01:19:06;;;;;;;8.05;2.70;;;;;;;;;;5072118;28;20033;-73
2022/11/29 01:21:32;;;;;;;6.72;2.45;;;;;;;;;;5082039;28;20012;-72
2022/11/29 01:24:00;;;;;;;6.45;3.17;;;;;;;;;;5092327;28;20038;-72
2022/11/29 01:26:28;;;;;;;6.57;2.42;;;;;;;;;;5092196;28;20027;-72
2022/11/29 01:28:55;;;;;;;7.63;3.10;;;;;;;;;;5092065;28;20043;-72
2022/11/29 01:31:23;;;;;;;7.68;3.20;;;;;;;;;;5091935;28;20036;-72
2022/11/29 01:33:53;;;;;;;7.18;2.42;;;;;;;;;;5092238;28;20030;-72
2022/11/29 01:36:19;;;;;;;3.65;1.70;;;;;;;;;;5092301;28;20038;-72
2022/11/29 01:38:45;;;;;;;7.07;1.77;;;;;;;;;;5091975;28;20036;-72
2022/11/29 01:41:13;;;;;;;3.13;1.40;;;;;;;;;;5083484;28;20032;-72
2022/11/29 01:43:55;;;;;;;3.28;1.45;;;;;;;;;;5054114;28;20388;-72
2022/11/29 01:46:21;;;;;;;5.68;1.45;;;;;;;;;;5071870;28;20024;-72
2022/11/29 01:48:48;;;;;;;5.60;1.55;;;;;;;;;;5072432;28;20082;-72
2022/11/29 01:51:15;;;;;;;4.70;1.20;;;;;;;;;;5071884;28;20028;-72
2022/11/29 01:53:42;;;;;;;4.88;1.25;;;;;;;;;;5071751;28;20051;-72
2022/11/29 01:56:09;;;;;;;5.38;1.38;;;;;;;;;;5074527;28;20032;-72
2022/11/29 01:58:36;;;;;;;9.65;1.48;;;;;;;;;;5075744;28;20013;-73
2022/11/29 02:01:02;;;;;;;5.18;1.17;;;;;;;;;;5041172;28;20542;-73
2022/11/29 02:03:28;;;;;;;2.03;0.95;;;;;;;;;;5058024;28;20039;-72
2022/11/29 02:05:54;;;;;;;2.88;1.15;;;;;;;;;;5075558;28;20020;-72
2022/11/29 02:08:24;;;;;;;4.50;1.10;;;;;;;;;;5075498;28;20017;-73
2022/11/29 02:11:09;;;;;;;5.47;1.20;;;;;;;;;;5075016;28;20036;-72
2022/11/29 02:13:54;;;;;;;3.90;1.15;;;;;;;;;;5075571;28;20031;-72
2022/11/29 02:16:24;;;;;;;9.45;2.50;;;;;;;;;;5057468;28;20027;-72
2022/11/29 02:18:56;;;;;;;8.55;2.40;;;;;;;;;;5075187;28;20469;-72
2022/11/29 02:21:22;;;;;;;10.32;2.60;;;;;;;;;;5083820;28;20069;-72
2022/11/29 02:24:07;;;;;;;10.75;2.22;;;;;;;;;;5095713;28;20028;-72
2022/11/29 02:26:34;;;;;;;4.10;1.35;;;;;;;;;;5095176;28;20028;-72
2022/11/29 02:29:03;;;;;;;3.42;1.25;;;;;;;;;;5095659;28;20016;-72
2022/11/29 02:31:42;;;;;;;6.75;1.42;;;;;;;;;;5095244;28;20523;-73
2022/11/29 02:34:18;;;;;;;5.35;1.55;;;;;;;;;;5095263;28;20399;-72
2022/11/29 02:37:03;;;;;;;6.65;1.17;;;;;;;;;;5095258;28;20028;-71
2022/11/29 02:39:36;;;;;;;5.18;1.75;;;;;;;;;;5094585;28;20032;-72
2022/11/29 02:42:47;;;;;;;6.78;1.17;;;;;;;;;;5079109;28;20034;-72
2022/11/29 02:45:13;;;;;;;;;;;;;;;;;;5013489;28;20042;-72
2022/11/29 02:47:49;;;;;;;8.77;1.75;;;;;;;;;;5012888;28;20010;-73
2022/11/29 02:50:15;;;;;;;9.25;2.22;;;;;;;;;;5012843;28;20423;-73
2022/11/29 02:53:00;;;;;;;5.78;2.05;;;;;;;;;;5013003;28;20084;-72
2022/11/29 02:55:45;;;;;;;9.27;2.05;;;;;;;;;;5012437;28;20065;-73
2022/11/29 02:58:14;;;;;;;7.90;1.80;;;;;;;;;;4996682;28;20036;-72
2022/11/29 03:00:44;;;;;;;4.80;1.08;;;;;;;;;;5012456;28;20041;-73
2022/11/29 03:03:34;;;;;;;5.05;1.45;;;;;;;;;;5012954;28;20026;-73
2022/11/29 03:06:11;;;;;;;5.20;1.27;;;;;;;;;;5001823;28;20042;-73
2022/11/29 03:08:46;;;;;;;6.63;1.05;;;;;;;;;;5012079;28;20440;-73
2022/11/29 03:11:24;;;;;;;4.88;1.20;;;;;;;;;;5012265;28;20044;-72
2022/11/29 03:13:51;;;;;;;5.40;1.38;;;;;;;;;;5012334;28;20149;-72
2022/11/29 03:16:50;;;;;;;7.72;1.45;;;;;;;;;;5012690;28;20036;-72
2022/11/29 03:19:28;;;;;;;5.07;1.00;;;;;;;;;;4934967;29;20046;-73
2022/11/29 03:22:03;;;;;;;6.85;0.80;;;;;;;;;;4985482;28;20042;-72
2022/11/29 03:25:16;;;;;;;2.08;0.70;;;;;;;;;;4972914;28;20042;-73
2022/11/29 03:27:51;;;;;;;6.32;0.98;;;;;;;;;;4973063;28;20464;-73
2022/11/29 03:30:18;;;;;;;5.80;1.27;;;;;;;;;;4973154;28;20555;-72
2022/11/29 03:33:29;;;;;;;4.78;1.00;;;;;;;;;;4973189;28;20120;-72
2022/11/29 03:36:14;;;;;;;4.53;1.08;;;;;;;;;;4970438;28;20039;-72
2022/11/29 03:38:42;;;;;;;8.68;1.55;;;;;;;;;;4972400;28;20067;-73
2022/11/29 03:41:23;;;;;;;2.05;0.85;;;;;;;;;;4980737;28;20535;-72
2022/11/29 03:43:57;;;;;;;5.20;0.80;;;;;;;;;;4992376;28;20042;-72
2022/11/29 03:46:32;;;;;;;3.53;1.00;;;;;;;;;;4992300;28;20026;-72
2022/11/29 03:49:02;;;;;;;3.95;1.17;;;;;;;;;;4992531;28;20109;-72
2022/11/29 03:51:40;;;;;;;5.80;1.02;;;;;;;;;;4992167;28;20475;-72
2022/11/29 03:54:11;;;;;;;8.93;1.30;;;;;;;;;;4998866;28;20043;-72
2022/11/29 03:56:39;;;;;;;7.47;1.45;;;;;;;;;;5031536;28;20067;-72
2022/11/29 03:59:12;;;;;;;4.43;0.80;;;;;;;;;;5031309;28;20044;-73
2022/11/29 04:01:57;;;;;;;2.92;0.90;;;;;;;;;;5059538;28;20044;-72
2022/11/29 04:04:42;;;;;;;7.95;1.30;;;;;;;;;;5093690;28;20043;-72
2022/11/29 04:07:27;;;;;;;7.47;1.58;;;;;;;;;;5093322;28;20024;-73
2022/11/29 04:10:14;;;;;;;5.75;1.00;;;;;;;;;;5093741;28;20080;-72
2022/11/29 04:12:46;;;;;;;4.05;1.02;;;;;;;;;;5093128;28;20408;-72
2022/11/29 04:15:18;;;;;;;6.30;1.35;;;;;;;;;;5093204;28;20020;-72
2022/11/29 04:18:03;;;;;;;3.65;1.00;;;;;;;;;;5092880;28;20024;-72
2022/11/29 04:20:33;;;;;;;8.23;1.35;;;;;;;;;;5092900;28;20396;-72
2022/11/29 04:23:16;;;;;;;2.42;1.10;;;;;;;;;;5092902;28;20035;-72
2022/11/29 04:26:01;;;;;;;2.53;1.30;;;;;;;;;;5093434;28;20021;-73
2022/11/29 04:28:30;;;;;;;3.95;1.00;;;;;;;;;;5093315;28;20030;-72
2022/11/29 04:31:04;;;;;;;4.35;1.20;;;;;;;;;;5092855;28;20036;-72
2022/11/29 04:33:42;;;;;;;3.20;1.00;;;;;;;;;;5092917;28;20027;-72
2022/11/29 04:36:14;;;;;;;7.03;1.15;;;;;;;;;;5092608;28;20016;-72
2022/11/29 04:38:47;;;;;;;6.63;1.55;;;;;;;;;;5092844;28;20066;-72
2022/11/29 04:41:19;;;;;;;5.95;1.52;;;;;;;;;;5083785;28;20370;-72
2022/11/29 04:43:45;;;;;;;7.18;1.10;;;;;;;;;;5072653;28;20404;-72
2022/11/29 04:46:24;;;;;;;5.88;1.70;;;;;;;;;;5072581;28;20019;-72
2022/11/29 04:48:50;;;;;;;5.85;1.40;;;;;;;;;;5072607;28;20396;-72
2022/11/29 04:51:25;;;;;;;4.88;1.45;;;;;;;;;;5072163;28;20043;-72
2022/11/29 04:54:05;;;;;;;3.00;1.23;;;;;;;;;;5072437;28;20393;-73
2022/11/29 04:56:34;;;;;;;5.82;1.30;;;;;;;;;;5072301;28;20024;-72
2022/11/29 04:59:07;;;;;;;4.75;1.30;;;;;;;;;;5072399;28;20027;-72
2022/11/29 05:01:42;;;;;;;12.52;1.75;;;;;;;;;;5072352;28;20020;-72
2022/11/29 05:04:24;;;;;;;4.80;1.10;;;;;;;;;;5072160;28;20032;-72
2022/11/29 05:06:59;;;;;;;4.55;1.25;;;;;;;;;;5072305;28;20062;-72
2022/11/29 05:09:28;;;;;;;9.40;1.20;;;;;;;;;;5072700;28;20033;-72
2022/11/29 05:11:54;;;;;;;3.65;1.00;;;;;;;;;;5072220;28;20033;-72
2022/11/29 05:14:27;;;;;;;3.90;1.45;;;;;;;;;;5072341;28;20020;-72
2022/11/29 05:17:11;;;;;;;5.43;1.30;;;;;;;;;;5072148;28;20027;-72
2022/11/29 05:19:44;;;;;;;3.85;1.30;;;;;;;;;;5072171;28;20039;-72
2022/11/29 05:22:19;;;;;;;6.78;1.75;;;;;;;;;;5087064;28;20021;-72
2022/11/29 05:24:52;;;;;;;5.97;1.98;;;;;;;;;;5092402;28;20027;-72
2022/11/29 05:27:27;;;;;;;7.65;1.50;;;;;;;;;;5092028;28;20024;-72
2022/11/29 05:30:01;;;;;;;8.77;1.73;;;;;;;;;;5093187;28;20024;-72
2022/11/29 05:32:39;;;;;;;6.95;2.28;;;;;;;;;;5096500;28;20484;-72
2022/11/29 05:35:24;;;;;;;7.65;2.20;;;;;;;;;;5095986;28;20396;-72
2022/11/29 05:38:09;;;;;;;6.45;2.25;;;;;;;;;;5096131;28;20024;-72
2022/11/29 05:40:39;;;;;;;11.18;2.92;;;;;;;;;;5092852;28;20024;-73
2022/11/29 05:43:21;;;;;;;12.63;3.17;;;;;;;;;;5075827;28;20029;-72
2022/11/29 05:46:06;;;;;;;10.35;2.53;;;;;;;;;;5076130;28;20089;-72
2022/11/29 05:48:53;;;;;;;25.38;5.97;;;;;;;;;;5075535;28;20378;-72
2022/11/29 05:51:34;;;;;;;31.95;9.15;;;;;;;;;;5013673;28;20064;-72
2022/11/29 05:54:00;;;;;;;;;;;;;;;;;;5014314;28;20033;-73
2022/11/29 05:56:32;;;;;;;265.17;105.93;;;;;;;;;;5013961;28;19905;-72
2022/11/29 05:59:18;;;;;;;866.75;412.35;;;;;;;;;;5014104;28;20036;-72
2022/11/29 06:02:05;;;;;;;101.22;39.63;;;;;;;;;;5013669;28;20037;-72
2022/11/29 06:04:51;;;;;;;82.80;31.20;;;;;;;;;;5013243;28;20470;-72
2022/11/29 06:07:22;;;;;;;26.23;10.68;;;;;;;;;;5000896;28;20034;-73
2022/11/29 06:09:54;;;;;;;22.57;9.83;;;;;;;;;;5013789;28;20041;-72
2022/11/29 06:12:21;;;;;;;19.38;8.13;;;;;;;;;;5013609;28;20328;-72
2022/11/29 06:15:06;;;;;;;21.23;9.48;;;;;;;;;;5013567;28;20517;-72
2022/11/29 06:17:51;;;;;;;36.83;19.20;;;;;;;;;;5013211;28;20040;-72
2022/11/29 06:20:29;;;;;;;16.90;6.85;;;;;;;;;;5013928;28;20040;-72
2022/11/29 06:23:14;;;;;;;23.05;10.27;;;;;;;;;;5013461;28;20033;-72
2022/11/29 06:25:56;;;;;;;13.27;5.80;;;;;;;;;;5013907;28;20032;-72
2022/11/29 06:28:37;;;;;;;10.80;4.32;;;;;;;;;;5053930;28;20031;-73
2022/11/29 06:31:16;;;;;;;111.10;44.83;;;;;;;;;;5075112;28;20488;-72
2022/11/29 06:33:55;;;;;;;27.33;13.25;;;;;;;;;;5074970;28;20035;-72
2022/11/29 06:36:34;;;;;;;31.55;13.40;;;;;;;;;;5074947;28;20046;-73
2022/11/29 06:39:00;;;;;;;6.47;3.25;;;;;;;;;;5074896;28;20520;-72
2022/11/29 06:41:27;;;;;;;14.60;5.32;;;;;;;;;;5085384;28;20425;-72
2022/11/29 06:43:53;;;;;;;33.45;19.20;;;;;;;;;;5095044;28;20473;-72
2022/11/29 06:46:19;;;;;;;25.95;14.73;;;;;;;;;;5094887;28;20031;-72
2022/11/29 06:48:54;;;;;;;7.82;1.88;;;;;;;;;;5094998;28;20488;-72
2022/11/29 06:51:27;;;;;;;17.50;8.52;;;;;;;;;;5094750;28;20039;-72
2022/11/29 06:54:13;;;;;;;13.07;4.50;;;;;;;;;;5076709;28;20030;-72
2022/11/29 06:57:11;;;;;;;7.90;3.50;;;;;;;;;;5095256;28;20054;-72
2022/11/29 06:59:56;;;;;;;12.60;6.95;;;;;;;;;;5094730;28;20024;-72
2022/11/29 07:02:25;;;;;;;15.85;8.07;;;;;;;;;;5094573;28;20020;-73
2022/11/29 07:05:10;;;;;;;11.35;5.45;;;;;;;;;;5094567;28;20022;-72
2022/11/29 07:07:37;;;;;;;121.97;43.97;;;;;;;;;;5094517;28;20023;-72
2022/11/29 07:10:04;;;;;;;93.85;35.92;;;;;;;;;;5090792;28;20047;-72
2022/11/29 07:12:30;;;;;;;53.15;21.50;;;;;;;;;;5083367;28;20389;-72
2022/11/29 07:15:00;;;;;;;17.83;8.32;;;;;;;;;;5086305;28;20030;-72
2022/11/29 07:17:32;;;;;;;25.73;11.32;;;;;;;;;;5079084;28;20020;-73
2022/11/29 07:20:08;;;;;;;35.33;16.48;;;;;;;;;;5055613;28;20035;-71
2022/11/29 07:22:34;;;;;;;17.20;6.82;;;;;;;;;;5080045;28;20389;-71
2022/11/29 07:25:00;;;;;;;34.60;13.75;;;;;;;;;;5082232;28;20028;-72
2022/11/29 07:27:32;;;;;;;36.88;18.67;;;;;;;;;;5086804;28;20024;-72
2022/11/29 07:30:06;;;;;;;28.17;13.18;;;;;;;;;;5091405;28;20023;-71
2022/11/29 07:32:38;;;;;;;14.10;5.47;;;;;;;;;;5082412;28;20077;-72
2022/11/29 07:35:13;;;;;;;28.55;12.80;;;;;;;;;;5101010;28;20481;-72
2022/11/29 07:37:48;;;;;;;15.90;7.03;;;;;;;;;;5090636;28;20046;-71
2022/11/29 07:40:31;;;;;;;8.02;2.72;;;;;;;;;;5092652;28;20032;-73
2022/11/29 07:42:57;;;;;;;35.80;15.85;;;;;;;;;;5093127;28;20024;-72
2022/11/29 07:45:25;;;;;;;156.93;82.65;;;;;;;;;;5092556;28;20020;-73
2022/11/29 07:47:52;;;;;;;49.25;26.58;;;;;;;;;;5086281;28;20008;-72
2022/11/29 07:50:19;;;;;;;82.90;38.83;;;;;;;;;;5082550;28;20050;-72
2022/11/29 07:52:46;;;;;;;102.35;51.90;;;;;;;;;;5089908;28;20032;-72
2022/11/29 07:55:13;;;;;;;130.00;61.70;;;;;;;;;;5091974;28;20470;-71
2022/11/29 07:57:39;;;;;;;109.68;50.65;;;;;;;;;;5092399;28;20020;-72
2022/11/29 08:00:06;;;;;;;14.82;6.57;;;;;;;;;;5092167;28;20016;-73
2022/11/29 08:02:33;;;;;;;45.33;20.30;;;;;;;;;;5091610;28;20500;-73
2022/11/29 08:05:00;;;;;;;204.90;97.72;;;;;;;;;;5087938;28;20020;-73
2022/11/29 08:07:27;;;;;;;72.22;34.80;;;;;;;;;;5090581;28;20053;-73
2022/11/29 08:09:53;;;;;;;34.28;15.30;;;;;;;;;;5091480;28;20030;-72
2022/11/29 08:12:19;;;;;;;23.05;10.55;;;;;;;;;;5087607;28;20036;-73
2022/11/29 08:14:46;;;;;;;21.98;8.80;;;;;;;;;;5082677;28;20507;-72
2022/11/29 08:17:12;;;;;;;15.55;6.15;;;;;;;;;;5091120;28;20124;-72
2022/11/29 08:19:38;;;;;;;9.07;4.07;;;;;;;;;;5084883;28;20024;-72
2022/11/29 08:22:05;;;;;;;12.30;3.88;;;;;;;;;;5068211;28;20016;-72
2022/11/29 08:24:31;;;;;;;12.73;4.72;;;;;;;;;;5081307;28;20024;-72
2022/11/29 08:26:57;;;;;;;14.20;6.95;;;;;;;;;;5081624;28;20060;-72
2022/11/29 08:29:24;;;;;;;28.13;12.27;;;;;;;;;;5088242;28;20016;-72
2022/11/29 08:31:52;;;;;;;19.90;7.10;;;;;;;;;;5090397;28;20043;-72
2022/11/29 08:34:19;;;;;;;15.55;8.25;;;;;;;;;;5090882;28;20020;-72
2022/11/29 08:36:46;;;;;;;44.92;21.85;;;;;;;;;;5072535;28;20028;-73
2022/11/29 08:39:12;;;;;;;25.60;13.73;;;;;;;;;;5089962;28;20032;-74
2022/11/29 08:41:38;;;;;;;35.40;18.13;;;;;;;;;;5090802;28;20031;-73
2022/11/29 08:44:05;;;;;;;25.95;12.55;;;;;;;;;;5089757;28;20012;-74
2022/11/29 08:49:16;;;;;;;11.30;3.60;;;;;;;;;;5083538;28;20016;-73
2022/11/29 08:51:42;;;;;;;9.35;2.80;;;;;;;;;;5088187;28;20028;-73
2022/11/29 08:54:09;;;;;;;7.25;2.40;;;;;;;;;;5090700;28;20054;-74
2022/11/29 08:56:36;;;;;;;5.47;1.95;;;;;;;;;;5090625;28;20038;-73
2022/11/29 08:59:03;;;;;;;5.07;1.90;;;;;;;;;;5090836;28;20027;-74
2022/11/29 09:01:29;;;;;;;6.20;1.60;;;;;;;;;;5088917;28;20035;-73
2022/11/29 09:03:59;;;;;;;4.30;1.95;;;;;;;;;;5090492;28;20020;-74
2022/11/29 09:06:26;;;;;;;11.10;4.70;;;;;;;;;;5089761;28;20020;-74
2022/11/29 09:08:56;;;;;;;6.63;3.25;;;;;;;;;;5088743;28;20039;-74
2022/11/29 09:11:23;;;;;;;32.33;17.05;;;;;;;;;;5089480;28;20046;-74
2022/11/29 09:13:51;;;;;;;17.17;7.40;;;;;;;;;;5090388;28;20028;-74
2022/11/29 09:16:18;;;;;;;13.27;6.55;;;;;;;;;;5090255;28;20034;-74
2022/11/29 09:18:47;;;;;;;13.07;5.00;;;;;;;;;;5090441;28;20366;-74
2022/11/29 09:21:15;;;;;;;7.15;2.13;;;;;;;;;;5091271;28;20474;-74
2022/11/29 09:23:42;;;;;;;14.18;5.80;;;;;;;;;;5089414;28;20084;-74
2022/11/29 09:26:10;;;;;;;6.38;1.67;;;;;;;;;;5089816;28;20035;-74
2022/11/29 09:28:37;;;;;;;10.30;5.18;;;;;;;;;;5084492;28;20424;-74
2022/11/29 09:31:07;;;;;;;8.50;3.53;;;;;;;;;;5085841;28;20032;-74
2022/11/29 09:33:34;;;;;;;7.78;1.90;;;;;;;;;;5089228;28;20039;-74
2022/11/29 09:36:01;;;;;;;6.75;1.63;;;;;;;;;;5089689;28;20036;-74
2022/11/29 09:38:27;;;;;;;6.68;1.63;;;;;;;;;;5089677;28;20052;-74
2022/11/29 09:40:54;;;;;;;13.77;6.05;;;;;;;;;;5089390;28;20396;-74
2022/11/29 09:43:39;;;;;;;8.30;2.80;;;;;;;;;;5089861;28;20032;-74
2022/11/29 09:46:14;;;;;;;9.02;1.50;;;;;;;;;;5085096;28;20515;-74
2022/11/29 09:48:47;;;;;;;7.88;2.05;;;;;;;;;;5089493;28;20061;-74
2022/11/29 09:51:18;;;;;;;5.47;1.40;;;;;;;;;;5089210;28;20046;-74
2022/11/29 09:53:47;;;;;;;6.78;1.80;;;;;;;;;;5067414;28;20489;-74
2022/11/29 09:56:18;;;;;;;9.77;2.90;;;;;;;;;;5088604;28;20032;-74
2022/11/29 09:58:54;;;;;;;10.40;2.00;;;;;;;;;;5076624;28;20088;-74
2022/11/29 10:01:22;;;;;;;7.07;1.52;;;;;;;;;;5089603;28;20024;-74
2022/11/29 10:03:51;;;;;;;7.95;2.13;;;;;;;;;;5089868;28;20427;-74
2022/11/29 10:06:25;;;;;;;10.80;3.20;;;;;;;;;;5089487;28;20024;-74
2022/11/29 10:09:00;;;;;;;16.73;5.10;;;;;;;;;;5089571;28;20085;-74
2022/11/29 10:11:27;;;;;;;15.80;3.58;;;;;;;;;;5089570;28;20485;-74
2022/11/29 10:13:56;;;;;;;6.15;2.60;;;;;;;;;;5089842;28;20022;-73
2022/11/29 10:16:28;;;;;;;5.47;1.52;;;;;;;;;;5090740;28;20034;-73
2022/11/29 10:18:58;;;;;;;26.52;12.20;;;;;;;;;;5084373;28;20493;-74
2022/11/29 10:21:27;;;;;;;12.52;3.72;;;;;;;;;;5102125;28;20027;-73
2022/11/29 10:23:54;;;;;;;6.75;2.85;;;;;;;;;;5101791;28;20027;-76
2022/11/29 10:26:21;;;;;;;8.40;2.47;;;;;;;;;;5054837;28;20039;-74
2022/11/29 10:28:48;;;;;;;9.30;2.70;;;;;;;;;;5086124;28;20028;-75
2022/11/29 10:31:25;;;;;;;34.88;16.15;;;;;;;;;;5092880;28;20024;-76
2022/11/29 10:33:52;;;;;;;6.78;1.80;;;;;;;;;;5093181;28;20081;-76
2022/11/29 10:36:22;;;;;;;8.10;2.17;;;;;;;;;;5093201;28;20020;-76
2022/11/29 10:38:48;;;;;;;6.85;2.30;;;;;;;;;;5092775;28;20516;-75
2022/11/29 10:41:19;;;;;;;4.55;1.73;;;;;;;;;;5083404;28;20028;-75
2022/11/29 10:43:46;;;;;;;5.72;1.42;;;;;;;;;;5073125;28;20032;-75
2022/11/29 10:46:35;;;;;;;5.03;1.42;;;;;;;;;;5080180;28;20036;-76
2022/11/29 10:49:06;;;;;;;6.80;1.30;;;;;;;;;;5082408;28;20034;-75
2022/11/29 10:51:33;;;;;;;5.13;1.08;;;;;;;;;;5083312;28;20749;-74
2022/11/29 10:54:05;;;;;;;4.03;1.30;;;;;;;;;;5094097;28;20030;-74
2022/11/29 10:56:36;;;;;;;3.83;1.20;;;;;;;;;;5090770;28;20477;-75
2022/11/29 10:59:06;;;;;;;6.22;1.33;;;;;;;;;;5092491;28;20378;-75
2022/11/29 11:01:41;;;;;;;1.60;0.98;;;;;;;;;;5092511;28;20412;-74
2022/11/29 11:04:13;;;;;;;6.97;1.55;;;;;;;;;;5070407;28;20031;-75
2022/11/29 11:06:43;;;;;;;6.28;1.23;;;;;;;;;;5074913;28;20050;-75
2022/11/29 11:09:18;;;;;;;6.85;1.42;;;;;;;;;;5090150;28;20024;-75
2022/11/29 11:11:55;;;;;;;5.80;1.70;;;;;;;;;;5091180;28;20039;-74
2022/11/29 11:14:29;;;;;;;8.25;1.25;;;;;;;;;;5091822;28;20069;-75
2022/11/29 11:16:55;;;;;;;4.85;1.50;;;;;;;;;;5091568;28;20481;-75
2022/11/29 11:19:25;;;;;;;5.72;2.20;;;;;;;;;;5091146;28;20764;-75
2022/11/29 11:21:51;;;;;;;9.13;1.90;;;;;;;;;;5098706;28;20024;-75
2022/11/29 11:24:28;;;;;;;3.67;1.30;;;;;;;;;;5092057;28;20024;-75
2022/11/29 11:26:54;;;;;;;4.03;1.40;;;;;;;;;;5073147;28;20032;-75
2022/11/29 11:29:23;;;;;;;4.70;1.38;;;;;;;;;;5091501;28;20020;-75
2022/11/29 11:31:59;;;;;;;4.55;1.58;;;;;;;;;;5090744;28;20036;-75
2022/11/29 11:34:33;;;;;;;9.45;3.70;;;;;;;;;;5091389;28;20531;-75
2022/11/29 11:37:15;;;;;;;7.38;1.58;;;;;;;;;;5088986;28;20614;-75
2022/11/29 11:39:45;;;;;;;4.35;1.17;;;;;;;;;;5091111;28;20408;-75
2022/11/29 11:42:38;;;;;;;5.97;1.58;;;;;;;;;;5091929;28;20420;-75
2022/11/29 11:45:04;;;;;;;6.75;1.60;;;;;;;;;;5088697;28;20458;-75
2022/11/29 11:47:32;;;;;;;6.40;1.52;;;;;;;;;;5091634;28;20024;-75
2022/11/29 11:50:02;;;;;;;4.20;1.63;;;;;;;;;;5091724;28;20028;-75
2022/11/29 11:52:28;;;;;;;5.75;1.30;;;;;;;;;;5090847;28;20024;-75
2022/11/29 11:54:56;;;;;;;9.35;3.67;;;;;;;;;;5091508;28;20023;-75
2022/11/29 11:57:23;;;;;;;3.97;1.15;;;;;;;;;;5091689;28;20012;-76
2022/11/29 11:59:50;;;;;;;7.95;1.60;;;;;;;;;;5091080;28;20020;-75
2022/11/29 12:02:35;;;;;;;5.22;1.23;;;;;;;;;;5090865;28;20024;-75
2022/11/29 12:05:03;;;;;;;8.23;1.08;;;;;;;;;;5091305;28;20027;-75
2022/11/29 12:07:35;;;;;;;4.15;1.33;;;;;;;;;;5090594;28;20042;-75
2022/11/29 12:10:05;;;;;;;4.80;1.88;;;;;;;;;;5088046;28;20046;-75
2022/11/29 12:12:37;;;;;;;3.75;1.30;;;;;;;;;;5091051;28;20035;-75
2022/11/29 12:15:15;;;;;;;7.97;1.63;;;;;;;;;;5090018;28;20437;-77
2022/11/29 12:17:46;;;;;;;8.93;3.30;;;;;;;;;;5091057;28;20533;-75
2022/11/29 12:20:12;;;;;;;6.50;1.85;;;;;;;;;;5090394;28;20028;-75
2022/11/29 12:22:41;;;;;;;5.82;1.50;;;;;;;;;;5089716;28;20032;-75
2022/11/29 12:25:13;;;;;;;8.68;1.60;;;;;;;;;;5091033;28;20392;-75
2022/11/29 12:27:39;;;;;;;5.53;1.65;;;;;;;;;;5072143;28;20024;-75
2022/11/29 12:30:14;;;;;;;4.32;1.60;;;;;;;;;;5091034;28;20016;-75
2022/11/29 12:32:56;;;;;;;4.10;1.30;;;;;;;;;;5090699;28;20148;-74
2022/11/29 12:35:33;;;;;;;6.25;1.60;;;;;;;;;;5076701;28;20021;-73
2022/11/29 12:38:02;;;;;;;10.70;4.82;;;;;;;;;;5084907;28;20036;-74
2022/11/29 12:40:55;;;;;;;7.05;2.55;;;;;;;;;;5085896;28;20039;-73
2022/11/29 12:43:31;;;;;;;6.57;2.60;;;;;;;;;;5082334;28;20062;-74
2022/11/29 12:46:03;;;;;;;5.60;2.78;;;;;;;;;;5086508;28;20402;-73
2022/11/29 12:48:48;;;;;;;6.95;2.72;;;;;;;;;;5088172;28;20049;-74
2022/11/29 12:51:33;;;;;;;13.15;1.58;;;;;;;;;;5070358;28;20436;-73
2022/11/29 12:54:00;;;;;;;7.43;2.40;;;;;;;;;;5087363;28;20020;-73
2022/11/29 12:56:50;;;;;;;6.75;3.28;;;;;;;;;;5084836;28;20028;-73
2022/11/29 12:59:43;;;;;;;7.95;3.63;;;;;;;;;;5089696;28;20042;-63
2022/11/29 13:02:21;;;;;;;8.25;2.22;;;;;;;;;;5089752;28;20439;-74
2022/11/29 13:04:58;;;;;;;6.13;1.90;;;;;;;;;;5088548;28;20020;-75
2022/11/29 13:07:43;;;;;;;6.57;2.50;;;;;;;;;;5088664;28;20407;-74
2022/11/29 13:10:19;;;;;;;4.97;1.45;;;;;;;;;;5087511;28;20085;-71
2022/11/29 13:12:49;;;;;;;7.90;3.80;;;;;;;;;;5089102;28;20733;-69
2022/11/29 13:15:16;;;;;;;9.40;3.35;;;;;;;;;;5089147;28;20039;-70
2022/11/29 13:18:01;;;;;;;4.10;1.90;;;;;;;;;;5070775;28;20039;-69
2022/11/29 13:20:35;;;;;;;4.60;1.45;;;;;;;;;;5088900;28;20028;-69
2022/11/29 13:23:04;;;;;;;7.47;1.58;;;;;;;;;;5089429;28;20028;-69
2022/11/29 13:25:35;;;;;;;6.45;2.05;;;;;;;;;;5089364;28;20085;-69
2022/11/29 13:28:04;;;;;;;9.27;2.45;;;;;;;;;;5089527;28;20024;-70
2022/11/29 13:30:32;;;;;;;4.85;1.85;;;;;;;;;;5084145;28;20043;-70
2022/11/29 13:33:03;;;;;;;3.22;1.20;;;;;;;;;;5079958;28;20021;-70
2022/11/29 13:35:45;;;;;;;4.38;1.60;;;;;;;;;;5080963;28;20034;-70
2022/11/29 13:38:35;;;;;;;6.65;2.28;;;;;;;;;;5090134;28;20054;-70
2022/11/29 13:41:10;;;;;;;4.50;1.85;;;;;;;;;;5088859;28;20045;-70
2022/11/29 13:43:40;;;;;;;3.58;1.42;;;;;;;;;;5080129;28;20409;-71
2022/11/29 13:46:23;;;;;;;4.17;1.10;;;;;;;;;;5083692;28;20033;-71
2022/11/29 13:48:51;;;;;;;6.15;1.58;;;;;;;;;;5099278;28;20042;-70
2022/11/29 13:51:24;;;;;;;3.50;1.50;;;;;;;;;;5091502;28;20050;-71
2022/11/29 13:53:51;;;;;;;7.30;1.38;;;;;;;;;;5071231;28;20036;-71
2022/11/29 13:56:46;;;;;;;6.43;1.60;;;;;;;;;;5091425;28;20024;-71
2022/11/29 13:59:24;;;;;;;8.00;1.50;;;;;;;;;;5071051;28;20504;-74
2022/11/29 14:01:52;;;;;;;5.78;1.35;;;;;;;;;;5088798;28;20396;-71
2022/11/29 14:04:28;;;;;;;5.07;1.67;;;;;;;;;;5083010;28;20028;-71
2022/11/29 14:07:08;;;;;;;5.32;1.48;;;;;;;;;;5093509;28;20489;-76
2022/11/29 14:09:46;;;;;;;4.97;1.58;;;;;;;;;;5094151;28;20020;-70
2022/11/29 14:12:26;;;;;;;4.97;1.67;;;;;;;;;;5093144;28;20527;-70
2022/11/29 14:15:05;;;;;;;4.97;1.23;;;;;;;;;;5075232;28;20042;-69
2022/11/29 14:17:55;;;;;;;4.22;1.60;;;;;;;;;;5092799;28;20446;-69
2022/11/29 14:20:25;;;;;;;5.57;1.70;;;;;;;;;;5080562;28;20024;-69
2022/11/29 14:23:03;;;;;;;5.37;2.90;;;;;;;;;;5092963;28;20028;-69
2022/11/29 14:25:34;;;;;;;3.97;1.88;;;;;;;;;;5091840;28;20269;-69
2022/11/29 14:28:23;;;;;;;6.43;1.70;;;;;;;;;;5082993;28;20020;-69
2022/11/29 14:30:50;;;;;;;7.90;3.47;;;;;;;;;;5072399;28;20024;-69
2022/11/29 14:33:28;;;;;;;7.07;2.05;;;;;;;;;;5072797;28;20028;-69
2022/11/29 14:36:10;;;;;;;7.03;2.75;;;;;;;;;;5072509;28;20078;-69
2022/11/29 14:38:55;;;;;;;6.25;1.60;;;;;;;;;;5055026;28;20048;-69
2022/11/29 14:41:37;;;;;;;4.93;1.35;;;;;;;;;;5082099;28;20032;-71
2022/11/29 14:44:15;;;;;;;5.60;2.03;;;;;;;;;;5088672;28;20028;-70
2022/11/29 14:46:42;;;;;;;5.60;2.03;;;;;;;;;;5092696;28;20020;-69
2022/11/29 14:49:17;;;;;;;4.45;1.77;;;;;;;;;;5092213;28;20035;-70
2022/11/29 14:52:04;;;;;;;7.22;1.75;;;;;;;;;;5092043;28;20036;-70
2022/11/29 14:54:30;;;;;;;8.20;2.28;;;;;;;;;;5091316;28;20652;-70
2022/11/29 14:56:56;;;;;;;8.50;2.63;;;;;;;;;;5074361;28;20038;-70
2022/11/29 14:59:42;;;;;;;5.68;1.63;;;;;;;;;;5092462;28;20035;-70
2022/11/29 15:02:33;;;;;;;16.10;2.05;;;;;;;;;;5073253;28;20024;-70
2022/11/29 15:05:18;;;;;;;6.15;1.95;;;;;;;;;;5090938;28;20038;-71
2022/11/29 15:07:56;;;;;;;4.32;1.30;;;;;;;;;;5085215;28;20416;-71
2022/11/29 15:10:25;;;;;;;4.45;1.42;;;;;;;;;;5092011;28;20020;-70
2022/11/29 15:12:52;;;;;;;5.63;1.63;;;;;;;;;;5094011;28;20044;-71
2022/11/29 15:15:18;;;;;;;7.40;2.65;;;;;;;;;;5081875;28;20552;-71